MOL Explorer — 3EKT8 — position and weather

sailwx.info

Track history (hours):
 
Tides and Currents Weather Stations Pressure Air Temp Water Temp Dewpoint Dewpoint Depression Visibility Wind Speed Wind Dir Waves Ship Positions

MOL Explorer

Last reported at 2016-May-18 18:23 UTC. Time now 2016-May-26 14:32 UTC.
Position N 09°07' W 079°46'.

Length 293 m; draft 10 m.

Type: Ship (hazmat cat A). MMSI: 372827000.

Date/timePositionNaut miles runAvg speedWind from/ knotsBaromVisibWave heightAir tempDewpointWater temp
2016-May-18 18:23N 09°07' W 079°46'7 5.4
2016-May-18 17:06N 09°11' W 079°52'4 6.0
2016-May-18 16:27N 09°13' W 079°55'4 4.0
2016-May-18 15:33N 09°16' W 079°55'0 0.4
2016-May-18 14:33N 09°16' W 079°55'0 0.4
2016-May-18 13:34N 09°17' W 079°55'4 3.6
2016-May-18 12:34N 09°21' W 079°55'5 4.6
2016-May-18 11:34N 09°25' W 079°55'4 3.9
2016-May-18 10:33N 09°22' W 079°53'0 0.0
2016-May-18 09:32N 09°22' W 079°53'0 0.0
2016-May-18 08:32N 09°22' W 079°53'0 0.0
2016-May-18 07:31N 09°22' W 079°53'0 0.0
2016-May-18 06:32N 09°22' W 079°53'0 0.0
2016-May-18 05:32N 09°22' W 079°53'0 0.0
2016-May-18 04:25N 09°22' W 079°53'0 0.0
2016-May-18 03:23N 09°22' W 079°53'0 0.0
2016-May-18 02:32N 09°22' W 079°53'0 0.0
2016-May-18 01:31N 09°22' W 079°53'0 0.0
2016-May-18 00:31N 09°22' W 079°53'0 0.2
2016-May-17 23:33N 09°22' W 079°53'5 5.0
2016-May-17 22:33N 09°27' W 079°53'2 1.7
2016-May-17 21:33N 09°28' W 079°54'1211.7
2016-May-17 20:34N 09°40' W 079°50'1212.3
2016-May-17 19:33N 09°51' W 079°45'  
2016-May-11 10:33N 36°49' W 075°44'1312.6
2016-May-11 09:33N 36°55' W 075°57'18 9.1
2016-May-11 07:33N 36°55' W 076°20'1 0.1
2016-May-10 20:33N 36°56' W 076°20'10 9.9
2016-May-10 19:33N 36°59' W 076°08'1313.3
2016-May-10 18:33N 36°54' W 075°53'17 1.3
2016-May-10 05:18N 36°53' W 075°32'0 0.0
2016-May-10 04:15N 36°53' W 075°32'171 7.9
2016-May-09 06:33N 39°25' W 073°52'1312.9
2016-May-09 05:33N 39°38' W 073°51'1312.9
2016-May-09 04:33N 39°50' W 073°51'3510.9
2016-May-09 01:19N 40°26' W 073°49'7 9.1
2016-May-09 00:33N 40°30' W 073°56'9 8.6
2016-May-08 23:33N 40°37' W 074°03'5 5.3
2016-May-08 22:33N 40°39' W 074°09'1 0.7
2016-May-08 20:32N 40°41' W 074°09'0 0.0
2016-May-08 19:29N 40°41' W 074°09'0 0.0
2016-May-08 18:32N 40°41' W 074°09'  
Track history (hours):
 
Tides and Currents Weather Stations Pressure Air Temp Water Temp Dewpoint Dewpoint Depression Visibility Wind Speed Wind Dir Waves Ship Positions

MOL Explorer

Last reported at 2016-May-18 18:23 UTC. Time now 2016-May-26 14:32 UTC.
Position N 09°07' W 079°46'.

Length 293 m; draft 10 m.

Type: Ship (hazmat cat A). MMSI: 372827000.

Date/timePositionNaut miles runAvg speedWind from/ knotsBaromVisibWave heightAir tempDewpointWater temp
2016-May-18 18:23N 09°07' W 079°46'7 5.4
2016-May-18 17:06N 09°11' W 079°52'4 6.0
2016-May-18 16:27N 09°13' W 079°55'4 4.0
2016-May-18 15:33N 09°16' W 079°55'0 0.4
2016-May-18 14:33N 09°16' W 079°55'0 0.4
2016-May-18 13:34N 09°17' W 079°55'4 3.6
2016-May-18 12:34N 09°21' W 079°55'5 4.6
2016-May-18 11:34N 09°25' W 079°55'4 3.9
2016-May-18 10:33N 09°22' W 079°53'0 0.0
2016-May-18 09:32N 09°22' W 079°53'0 0.0
2016-May-18 08:32N 09°22' W 079°53'0 0.0
2016-May-18 07:31N 09°22' W 079°53'0 0.0
2016-May-18 06:32N 09°22' W 079°53'0 0.0
2016-May-18 05:32N 09°22' W 079°53'0 0.0
2016-May-18 04:25N 09°22' W 079°53'0 0.0
2016-May-18 03:23N 09°22' W 079°53'0 0.0
2016-May-18 02:32N 09°22' W 079°53'0 0.0
2016-May-18 01:31N 09°22' W 079°53'0 0.0
2016-May-18 00:31N 09°22' W 079°53'0 0.2
2016-May-17 23:33N 09°22' W 079°53'5 5.0
2016-May-17 22:33N 09°27' W 079°53'2 1.7
2016-May-17 21:33N 09°28' W 079°54'1211.7
2016-May-17 20:34N 09°40' W 079°50'1212.3
2016-May-17 19:33N 09°51' W 079°45'  
2016-May-11 10:33N 36°49' W 075°44'1312.6
2016-May-11 09:33N 36°55' W 075°57'18 9.1
2016-May-11 07:33N 36°55' W 076°20'1 0.1
2016-May-10 20:33N 36°56' W 076°20'10 9.9
2016-May-10 19:33N 36°59' W 076°08'1313.3
2016-May-10 18:33N 36°54' W 075°53'17 1.3
2016-May-10 05:18N 36°53' W 075°32'0 0.0
2016-May-10 04:15N 36°53' W 075°32'171 7.9
2016-May-09 06:33N 39°25' W 073°52'1312.9
2016-May-09 05:33N 39°38' W 073°51'1312.9
2016-May-09 04:33N 39°50' W 073°51'3510.9
2016-May-09 01:19N 40°26' W 073°49'7 9.1
2016-May-09 00:33N 40°30' W 073°56'9 8.6
2016-May-08 23:33N 40°37' W 074°03'5 5.3
2016-May-08 22:33N 40°39' W 074°09'1 0.7
2016-May-08 20:32N 40°41' W 074°09'0 0.0
2016-May-08 19:29N 40°41' W 074°09'0 0.0
2016-May-08 18:32N 40°41' W 074°09'  

Dump ship's entire track history